createdAt,value
2022-09-17T00:01:35.584Z,2.73
2022-09-17T00:04:05.480Z,2.33
2022-09-17T00:06:36.871Z,3.57
2022-09-17T00:09:06.268Z,2.63
2022-09-17T00:11:37.837Z,2.80
2022-09-17T00:14:09.313Z,2.50
2022-09-17T00:16:39.611Z,2.87
2022-09-17T00:19:10.189Z,2.93
2022-09-17T00:21:40.964Z,2.93
2022-09-17T00:24:11.314Z,2.80
2022-09-17T00:26:39.701Z,3.10
2022-09-17T00:29:08.156Z,4.23
2022-09-17T00:31:36.909Z,8.27
2022-09-17T00:34:06.783Z,10.47
2022-09-17T00:36:36.326Z,12.83
2022-09-17T00:39:08.560Z,9.93
2022-09-17T00:41:37.851Z,8.57
2022-09-17T00:44:39.302Z,31.80
2022-09-17T00:47:14.351Z,43.87
2022-09-17T00:49:43.106Z,15.23
2022-09-17T00:52:14.442Z,21.50
2022-09-17T00:54:46.223Z,11.40
2022-09-17T00:57:14.661Z,9.77
2022-09-17T00:59:43.175Z,12.70
2022-09-17T01:02:12.207Z,5.40
2022-09-17T01:04:40.604Z,13.67
2022-09-17T01:07:12.650Z,10.50
2022-09-17T01:09:49.922Z,18.23
2022-09-17T01:12:39.623Z,8.13
2022-09-17T01:15:16.858Z,3.03
2022-09-17T01:17:50.082Z,5.57
2022-09-17T01:20:54.385Z,4.63
2022-09-17T01:23:52.205Z,4.73
2022-09-17T01:26:42.475Z,2.53
2022-09-17T01:29:17.457Z,5.20
2022-09-17T01:31:51.954Z,3.93
2022-09-17T01:34:25.138Z,5.27
2022-09-17T01:37:03.474Z,3.97
2022-09-17T01:39:37.405Z,2.80
2022-09-17T01:42:16.755Z,3.73
2022-09-17T01:44:52.036Z,5.20
2022-09-17T01:47:24.259Z,2.53
2022-09-17T01:49:55.291Z,2.20
2022-09-17T01:52:24.820Z,4.73
2022-09-17T01:54:57.954Z,4.27
2022-09-17T01:57:29.309Z,7.10
2022-09-17T02:00:01.901Z,2.70
2022-09-17T02:02:35.441Z,5.03
2022-09-17T02:05:07.831Z,2.20
2022-09-17T02:07:42.234Z,2.33
2022-09-17T02:10:14.319Z,4.10
2022-09-17T02:12:46.202Z,2.53
2022-09-17T02:15:17.932Z,3.00
2022-09-17T02:17:50.704Z,4.07
2022-09-17T02:20:22.834Z,2.60
2022-09-17T02:22:56.671Z,4.57
2022-09-17T02:25:29.866Z,4.67
2022-09-17T02:28:03.458Z,2.70
2022-09-17T02:30:32.535Z,3.20
2022-09-17T02:33:03.238Z,3.87
2022-09-17T02:35:33.310Z,2.67
2022-09-17T02:38:01.778Z,2.93
2022-09-17T02:40:33.191Z,2.50
2022-09-17T02:43:11.990Z,3.23
2022-09-17T02:45:49.040Z,5.23
2022-09-17T02:48:29.807Z,4.53
2022-09-17T02:51:11.003Z,2.80
2022-09-17T02:53:45.354Z,3.10
2022-09-17T02:56:19.478Z,4.73
2022-09-17T02:58:52.342Z,3.30
2022-09-17T03:01:25.527Z,3.20
2022-09-17T03:03:56.316Z,2.30
2022-09-17T03:06:24.933Z,3.93
2022-09-17T03:08:53.705Z,2.93
2022-09-17T03:11:22.189Z,3.30
2022-09-17T03:13:50.665Z,2.87
2022-09-17T03:16:19.127Z,3.80
2022-09-17T03:18:47.737Z,3.00
2022-09-17T03:21:17.535Z,2.67
2022-09-17T03:23:46.053Z,2.10
2022-09-17T03:26:14.499Z,2.30
2022-09-17T03:28:42.891Z,1.90
2022-09-17T03:31:11.350Z,2.27
2022-09-17T03:33:39.754Z,2.57
2022-09-17T03:36:08.247Z,2.27
2022-09-17T03:38:38.631Z,2.33
2022-09-17T03:41:08.218Z,3.47
2022-09-17T03:43:37.079Z,1.90
2022-09-17T03:46:05.719Z,2.93
2022-09-17T03:48:37.064Z,2.23
2022-09-17T03:51:05.822Z,2.00
2022-09-17T03:53:34.300Z,3.57
2022-09-17T03:56:06.606Z,1.90
2022-09-17T03:58:35.784Z,1.80
2022-09-17T04:01:04.712Z,2.27
2022-09-17T04:03:33.484Z,3.50
2022-09-17T04:06:01.939Z,2.30
2022-09-17T04:08:30.347Z,2.23
2022-09-17T04:10:58.832Z,4.67
2022-09-17T04:13:29.746Z,4.27
2022-09-17T04:15:58.226Z,4.27
2022-09-17T04:18:26.709Z,4.00
2022-09-17T04:20:55.231Z,3.20
2022-09-17T04:23:23.822Z,3.57
2022-09-17T04:25:52.631Z,2.57
2022-09-17T04:28:21.069Z,2.13
2022-09-17T04:30:54.048Z,2.50
2022-09-17T04:33:22.879Z,1.97
2022-09-17T04:35:51.300Z,2.67
2022-09-17T04:38:20.693Z,2.13
2022-09-17T04:40:50.100Z,2.27
2022-09-17T04:43:18.736Z,2.00
2022-09-17T04:45:50.631Z,3.60
2022-09-17T04:48:20.401Z,3.30
2022-09-17T04:50:48.886Z,3.13
2022-09-17T04:53:17.343Z,2.80
2022-09-17T04:55:45.903Z,2.50
2022-09-17T04:58:14.399Z,2.67
2022-09-17T05:00:43.394Z,2.70
2022-09-17T05:03:11.835Z,2.50
2022-09-17T05:05:41.742Z,2.60
2022-09-17T05:08:10.242Z,2.27
2022-09-17T05:10:38.714Z,2.30
2022-09-17T05:13:07.191Z,2.40
2022-09-17T05:15:35.625Z,2.17
2022-09-17T05:18:04.204Z,3.43
2022-09-17T05:20:32.604Z,9.85
2022-09-17T05:23:02.552Z,5.30
2022-09-17T05:25:30.977Z,4.33
2022-09-17T05:28:01.291Z,3.20
2022-09-17T05:30:30.141Z,3.27
2022-09-17T05:33:03.087Z,2.67
2022-09-17T05:35:33.881Z,3.10
2022-09-17T05:38:05.253Z,2.40
2022-09-17T05:40:34.116Z,3.30
2022-09-17T05:43:03.876Z,3.83
2022-09-17T05:45:33.463Z,4.50
2022-09-17T05:48:03.087Z,2.70
2022-09-17T05:50:32.295Z,2.47
2022-09-17T05:53:07.480Z,2.97
2022-09-17T05:55:36.464Z,3.37
2022-09-17T05:58:12.210Z,3.00
2022-09-17T06:00:41.778Z,3.40
2022-09-17T06:03:11.534Z,3.43
2022-09-17T06:05:40.084Z,3.83
2022-09-17T06:08:10.294Z,3.93
2022-09-17T06:10:39.389Z,4.07
2022-09-17T06:13:07.847Z,3.37
2022-09-17T06:15:36.258Z,3.47
2022-09-17T06:18:04.899Z,3.77
2022-09-17T06:20:33.589Z,2.87
2022-09-17T06:23:02.010Z,2.80
2022-09-17T06:25:31.905Z,3.33
2022-09-17T06:28:00.316Z,2.60
2022-09-17T06:30:28.966Z,2.60
2022-09-17T06:32:57.355Z,2.70
2022-09-17T06:35:25.782Z,3.13
2022-09-17T06:37:54.191Z,3.03
2022-09-17T06:40:23.380Z,2.93
2022-09-17T06:42:58.629Z,3.37
2022-09-17T06:45:27.631Z,3.23
2022-09-17T06:47:56.279Z,3.30
2022-09-17T06:50:25.450Z,3.27
2022-09-17T06:52:55.761Z,3.10
2022-09-17T06:55:24.270Z,3.30
2022-09-17T06:57:54.138Z,3.30
2022-09-17T07:00:22.590Z,3.50
2022-09-17T07:02:57.753Z,3.50
2022-09-17T07:05:26.717Z,3.87
2022-09-17T07:07:55.506Z,3.67
2022-09-17T07:10:24.445Z,3.50
2022-09-17T07:12:54.659Z,3.27
2022-09-17T07:15:23.257Z,2.70
2022-09-17T07:17:51.673Z,3.43
2022-09-17T07:20:20.327Z,3.60
2022-09-17T07:22:57.322Z,3.60
2022-09-17T07:25:26.552Z,4.30
2022-09-17T07:27:56.619Z,3.37
2022-09-17T07:30:25.032Z,4.30
2022-09-17T07:32:53.628Z,6.03
2022-09-17T07:35:22.128Z,4.33
2022-09-17T07:37:51.176Z,4.57
2022-09-17T07:40:20.072Z,6.73
2022-09-17T07:42:48.540Z,4.10
2022-09-17T07:45:18.506Z,4.37
2022-09-17T07:47:47.311Z,6.47
2022-09-17T07:50:16.737Z,8.43
2022-09-17T07:52:47.346Z,10.47
2022-09-17T07:55:16.693Z,7.13
2022-09-17T07:57:45.159Z,7.80
2022-09-17T08:00:15.555Z,12.57
2022-09-17T08:02:45.441Z,10.63
2022-09-17T08:05:13.989Z,10.53
2022-09-17T08:07:42.506Z,8.10
2022-09-17T08:10:11.399Z,5.17
2022-09-17T08:12:39.842Z,5.30
2022-09-17T08:15:09.371Z,3.83
2022-09-17T08:17:40.098Z,3.87
2022-09-17T08:20:12.769Z,4.07
2022-09-17T08:22:41.634Z,7.13
2022-09-17T08:25:11.023Z,4.17
2022-09-17T08:27:39.904Z,4.40
2022-09-17T08:30:09.938Z,3.67
2022-09-17T08:32:38.401Z,3.83
2022-09-17T08:35:07.494Z,3.70
2022-09-17T08:37:37.270Z,3.40
2022-09-17T08:40:06.434Z,4.17
2022-09-17T08:42:40.418Z,3.70
2022-09-17T08:45:14.218Z,4.50
2022-09-17T08:47:43.830Z,5.00
2022-09-17T08:50:17.168Z,5.20
2022-09-17T08:53:10.540Z,5.00
2022-09-17T08:55:41.986Z,4.70
2022-09-17T08:58:28.268Z,4.47
2022-09-17T09:01:02.245Z,9.47
2022-09-17T09:03:43.911Z,8.50
2022-09-17T09:06:13.238Z,9.17
2022-09-17T09:08:44.403Z,7.80
2022-09-17T09:11:15.315Z,7.13
2022-09-17T09:13:46.365Z,5.87
2022-09-17T09:16:17.790Z,4.77
2022-09-17T09:18:47.173Z,6.67
2022-09-17T09:21:24.055Z,18.20
2022-09-17T09:23:58.585Z,8.80
2022-09-17T09:26:38.738Z,6.53
2022-09-17T09:29:13.457Z,7.03
2022-09-17T09:31:56.850Z,16.87
2022-09-17T09:34:26.919Z,21.13
2022-09-17T09:36:57.393Z,10.27
2022-09-17T09:39:41.286Z,10.47
2022-09-17T09:42:17.761Z,11.23
2022-09-17T09:44:46.342Z,5.37
2022-09-17T09:47:36.406Z,6.50
2022-09-17T09:50:16.392Z,6.33
2022-09-17T09:52:54.557Z,5.63
2022-09-17T09:55:36.158Z,4.93
2022-09-17T09:58:07.111Z,4.57
2022-09-17T10:00:39.343Z,6.10
2022-09-17T10:03:14.382Z,5.33
2022-09-17T10:05:54.236Z,6.50
2022-09-17T10:08:22.789Z,2.27
2022-09-17T10:11:01.443Z,2.20
2022-09-17T10:13:31.692Z,3.00
2022-09-17T10:16:17.831Z,2.10
2022-09-17T10:18:46.493Z,3.50
2022-09-17T10:21:21.946Z,2.30
2022-09-17T10:23:51.594Z,4.20
2022-09-17T10:26:28.644Z,2.90
2022-09-17T10:28:58.532Z,2.00
2022-09-17T10:31:27.093Z,1.67
2022-09-17T10:33:58.789Z,4.23
2022-09-17T10:36:39.667Z,4.40
2022-09-17T10:39:36.513Z,15.17
2022-09-17T10:42:10.863Z,14.00
2022-09-17T10:44:39.940Z,14.43
2022-09-17T10:47:14.003Z,14.17
2022-09-17T10:49:44.606Z,11.30
2022-09-17T10:52:19.376Z,11.70
2022-09-17T10:55:27.224Z,15.97
2022-09-17T10:58:05.227Z,2.80
2022-09-17T11:00:42.676Z,2.83
2022-09-17T11:03:33.723Z,3.03
2022-09-17T11:06:16.414Z,2.03
2022-09-17T11:08:51.568Z,4.83
2022-09-17T11:11:28.959Z,2.80
2022-09-17T11:14:08.171Z,1.90
2022-09-17T11:16:41.739Z,2.57
2022-09-17T11:19:17.076Z,3.07
2022-09-17T11:21:49.076Z,3.83
2022-09-17T11:24:38.234Z,2.30
2022-09-17T11:27:11.832Z,1.87
2022-09-17T11:30:02.448Z,2.17
2022-09-17T11:32:54.556Z,7.40
2022-09-17T11:35:26.046Z,9.87
2022-09-17T11:38:00.206Z,7.40
2022-09-17T11:40:35.991Z,6.47
2022-09-17T11:43:08.799Z,11.47
2022-09-17T11:45:41.285Z,3.30
2022-09-17T11:48:13.865Z,2.63
2022-09-17T11:50:45.080Z,3.77
2022-09-17T11:53:19.045Z,3.23
2022-09-17T11:55:50.518Z,3.77
2022-09-17T11:58:23.196Z,2.03
2022-09-17T12:00:55.791Z,2.80
2022-09-17T12:03:29.630Z,1.20
2022-09-17T12:06:00.332Z,1.63
2022-09-17T12:08:32.618Z,1.30
2022-09-17T12:11:06.995Z,2.27
2022-09-17T12:13:39.802Z,4.40
2022-09-17T12:16:17.260Z,1.10
2022-09-17T12:18:53.026Z,1.33
2022-09-17T12:21:26.951Z,2.40
2022-09-17T12:23:59.494Z,1.93
2022-09-17T12:26:51.334Z,1.87
2022-09-17T12:29:44.893Z,2.57
2022-09-17T12:32:25.247Z,2.37
2022-09-17T12:34:58.580Z,2.93
2022-09-17T12:37:29.729Z,2.10
2022-09-17T12:40:10.524Z,2.53
2022-09-17T12:42:48.038Z,1.40
2022-09-17T12:45:57.606Z,3.10
2022-09-17T12:48:55.606Z,1.67
2022-09-17T12:51:38.687Z,1.27
2022-09-17T12:54:12.039Z,1.70
2022-09-17T12:56:52.209Z,6.50
2022-09-17T12:59:21.092Z,2.97
2022-09-17T13:01:53.781Z,0.93
2022-09-17T13:05:00.489Z,1.43
2022-09-17T13:07:45.792Z,1.73
2022-09-17T13:10:29.334Z,1.20
2022-09-17T13:13:00.995Z,1.30
2022-09-17T13:15:46.563Z,2.20
2022-09-17T13:18:26.582Z,0.67
2022-09-17T13:21:03.014Z,2.10
2022-09-17T13:23:37.862Z,2.57
2022-09-17T13:26:06.865Z,0.83
2022-09-17T13:28:44.649Z,1.70
2022-09-17T13:31:20.948Z,1.37
2022-09-17T13:33:54.182Z,1.60
2022-09-17T13:36:44.635Z,3.37
2022-09-17T13:39:34.538Z,4.00
2022-09-17T13:42:06.062Z,2.17
2022-09-17T13:44:37.188Z,4.77
2022-09-17T13:47:17.195Z,2.40
2022-09-17T13:49:48.296Z,2.30
2022-09-17T13:52:31.662Z,2.63
2022-09-17T13:55:01.783Z,2.60
2022-09-17T13:57:31.559Z,3.73
2022-09-17T14:00:01.980Z,1.93
2022-09-17T14:02:36.355Z,2.83
2022-09-17T14:05:34.462Z,3.40
2022-09-17T14:08:29.227Z,2.97
2022-09-17T14:11:00.514Z,3.90
2022-09-17T14:13:44.709Z,2.17
2022-09-17T14:16:35.577Z,1.87
2022-09-17T14:19:14.323Z,1.80
2022-09-17T14:21:44.396Z,2.57
2022-09-17T14:24:22.089Z,2.73
2022-09-17T14:27:08.242Z,3.17
2022-09-17T14:29:59.046Z,5.63
2022-09-17T14:32:32.382Z,2.33
2022-09-17T14:35:02.294Z,2.63
2022-09-17T14:37:31.045Z,2.50
2022-09-17T14:40:00.874Z,2.90
2022-09-17T14:42:35.419Z,1.70
2022-09-17T14:45:07.351Z,2.37
2022-09-17T14:47:35.788Z,2.50
2022-09-17T14:50:21.121Z,3.50
2022-09-17T14:52:50.181Z,2.40
2022-09-17T14:55:26.409Z,2.20
2022-09-17T14:57:56.587Z,3.13
2022-09-17T15:00:26.199Z,6.00
2022-09-17T15:02:59.524Z,3.50
2022-09-17T15:05:30.371Z,2.20
2022-09-17T15:08:16.922Z,2.20
2022-09-17T15:10:52.041Z,1.70
2022-09-17T15:13:27.222Z,1.67
2022-09-17T15:15:59.825Z,4.03
2022-09-17T15:18:36.612Z,1.87
2022-09-17T15:21:12.414Z,1.80
2022-09-17T15:23:41.166Z,3.87
2022-09-17T15:26:11.601Z,1.93
2022-09-17T15:28:44.234Z,2.73
2022-09-17T15:31:18.340Z,3.87
2022-09-17T15:33:49.427Z,5.13
2022-09-17T15:36:22.832Z,5.63
2022-09-17T15:38:52.102Z,5.23
2022-09-17T15:41:34.964Z,3.30
2022-09-17T15:44:29.714Z,6.17
2022-09-17T15:47:32.818Z,6.40
2022-09-17T15:50:23.123Z,4.87
2022-09-17T15:52:52.589Z,5.67
2022-09-17T15:55:32.599Z,2.40
2022-09-17T15:58:04.452Z,2.03
2022-09-17T16:00:33.252Z,2.80
2022-09-17T16:04:02.973Z,2.30
2022-09-17T16:06:38.585Z,3.83
2022-09-17T16:09:43.196Z,2.43
2022-09-17T16:12:14.530Z,3.50
2022-09-17T16:14:52.042Z,2.03
2022-09-17T16:17:36.470Z,1.60
2022-09-17T16:20:16.061Z,2.97
2022-09-17T16:22:45.165Z,1.03
2022-09-17T16:25:13.683Z,1.37
2022-09-17T16:27:47.964Z,1.00
2022-09-17T16:30:19.648Z,0.50
2022-09-17T16:32:48.460Z,0.63
2022-09-17T16:35:18.868Z,0.40
2022-09-17T16:37:50.219Z,1.00
2022-09-17T16:40:19.545Z,0.50
2022-09-17T16:42:48.789Z,0.60
2022-09-17T16:45:18.686Z,0.60
2022-09-17T16:47:47.450Z,1.20
2022-09-17T16:50:18.595Z,3.80
2022-09-17T16:52:47.538Z,6.80
2022-09-17T16:55:18.231Z,1.20
2022-09-17T16:57:46.659Z,2.47
2022-09-17T17:00:19.464Z,0.20
2022-09-17T17:02:53.502Z,0.20
2022-09-17T17:05:22.263Z,0.30
2022-09-17T17:07:51.747Z,0.63
2022-09-17T17:10:20.330Z,0.83
2022-09-17T17:12:48.787Z,0.60
2022-09-17T17:15:18.966Z,1.10
2022-09-17T17:17:47.400Z,0.87
2022-09-17T17:20:16.866Z,1.10
2022-09-17T17:22:45.683Z,3.50
2022-09-17T17:25:15.427Z,1.80
2022-09-17T17:27:44.505Z,2.37
2022-09-17T17:30:16.881Z,3.10
2022-09-17T17:32:51.128Z,2.95
2022-09-17T17:35:19.668Z,2.97
2022-09-17T17:37:48.587Z,2.87
2022-09-17T17:40:17.237Z,2.30
2022-09-17T17:42:47.453Z,1.40
2022-09-17T17:45:16.449Z,1.63
2022-09-17T17:47:46.314Z,1.70
2022-09-17T17:50:15.780Z,1.90
2022-09-17T17:52:48.752Z,2.67
2022-09-17T17:55:17.850Z,1.73
2022-09-17T17:57:46.258Z,1.97
2022-09-17T18:00:16.848Z,1.67
2022-09-17T18:02:46.979Z,1.47
2022-09-17T18:05:15.579Z,3.93
2022-09-17T18:07:43.986Z,4.17
2022-09-17T18:10:13.136Z,4.23
2022-09-17T18:12:42.498Z,2.10
2022-09-17T18:15:11.634Z,2.33
2022-09-17T18:17:40.272Z,1.30
2022-09-17T18:20:11.037Z,1.40
2022-09-17T18:22:39.468Z,1.50
2022-09-17T18:25:08.653Z,1.30
2022-09-17T18:27:37.065Z,1.40
2022-09-17T18:30:06.483Z,8.30
2022-09-17T18:32:34.963Z,14.63
2022-09-17T18:35:03.393Z,7.73
2022-09-17T18:37:33.179Z,4.30
2022-09-17T18:40:02.433Z,3.43
2022-09-17T18:42:30.976Z,3.47
2022-09-17T18:44:59.383Z,6.30
2022-09-17T18:47:27.904Z,3.77
2022-09-17T18:49:56.396Z,3.77
2022-09-17T18:52:24.883Z,3.60
2022-09-17T18:54:54.814Z,4.93
2022-09-17T18:57:23.296Z,3.03
2022-09-17T18:59:52.050Z,2.87
2022-09-17T19:02:20.476Z,2.87
2022-09-17T19:04:48.988Z,4.07
2022-09-17T19:07:17.410Z,4.27
2022-09-17T19:09:45.952Z,4.50
2022-09-17T19:12:15.777Z,3.60
2022-09-17T19:14:44.357Z,3.57
2022-09-17T19:17:12.804Z,3.50
2022-09-17T19:19:41.330Z,2.43
2022-09-17T19:22:09.790Z,2.50
2022-09-17T19:24:38.376Z,3.13
2022-09-17T19:27:07.850Z,3.37
2022-09-17T19:29:37.718Z,2.67
2022-09-17T19:32:06.730Z,4.93
2022-09-17T19:34:35.172Z,3.40
2022-09-17T19:37:05.503Z,4.17
2022-09-17T19:39:34.138Z,5.63
2022-09-17T19:42:02.579Z,3.93
2022-09-17T19:44:31.087Z,3.90
2022-09-17T19:47:01.233Z,5.40
2022-09-17T19:49:29.640Z,3.83
2022-09-17T19:51:58.078Z,3.10
2022-09-17T19:54:26.614Z,2.97
2022-09-17T19:56:54.998Z,2.80
2022-09-17T19:59:23.539Z,2.87
2022-09-17T20:01:52.089Z,2.27
2022-09-17T20:04:21.967Z,2.17
2022-09-17T20:06:50.394Z,3.07
2022-09-17T20:09:18.839Z,2.77
2022-09-17T20:11:47.268Z,1.77
2022-09-17T20:14:15.895Z,1.50
2022-09-17T20:16:45.087Z,2.80
2022-09-17T20:19:16.433Z,1.83
2022-09-17T20:21:46.205Z,3.17
2022-09-17T20:24:14.770Z,2.20
2022-09-17T20:26:43.346Z,2.20
2022-09-17T20:29:12.017Z,2.40
2022-09-17T20:31:40.546Z,1.73
2022-09-17T20:34:08.951Z,1.57
2022-09-17T20:36:37.630Z,3.77
2022-09-17T20:39:16.484Z,2.30
2022-09-17T20:41:51.742Z,3.80
2022-09-17T20:44:20.760Z,1.97
2022-09-17T20:46:49.361Z,2.17
2022-09-17T20:49:18.214Z,3.27
2022-09-17T20:51:46.607Z,3.07
2022-09-17T20:54:16.622Z,2.40
2022-09-17T20:56:45.407Z,2.20
2022-09-17T20:59:18.462Z,3.63
2022-09-17T21:01:49.654Z,2.40
2022-09-17T21:04:20.087Z,2.43
2022-09-17T21:06:50.522Z,2.10
2022-09-17T21:09:20.545Z,2.23
2022-09-17T21:11:49.754Z,2.37
2022-09-17T21:14:19.461Z,2.10
2022-09-17T21:16:49.150Z,2.00
2022-09-17T21:19:17.638Z,1.87
2022-09-17T21:21:46.203Z,24.07
2022-09-17T21:24:14.893Z,4.07
2022-09-17T21:26:45.864Z,2.33
2022-09-17T21:29:14.301Z,1.73
2022-09-17T21:31:42.823Z,1.80
2022-09-17T21:34:12.974Z,2.87
2022-09-17T21:36:44.300Z,1.63
2022-09-17T21:39:14.832Z,1.87
2022-09-17T21:41:45.347Z,2.10
2022-09-17T21:44:14.802Z,1.30
2022-09-17T21:46:43.883Z,2.57
2022-09-17T21:49:13.422Z,1.30
2022-09-17T21:51:43.410Z,1.00
2022-09-17T21:54:13.687Z,2.13
2022-09-17T21:56:42.228Z,1.03
2022-09-17T21:59:13.812Z,2.03
2022-09-17T22:01:46.077Z,1.20
2022-09-17T22:04:16.542Z,1.23
2022-09-17T22:06:46.119Z,1.23
2022-09-17T22:09:17.607Z,1.60
2022-09-17T22:11:46.528Z,2.83
2022-09-17T22:14:19.544Z,2.20
2022-09-17T22:16:50.611Z,1.90
2022-09-17T22:19:20.803Z,2.77
2022-09-17T22:21:51.290Z,1.73
2022-09-17T22:24:21.350Z,1.60
2022-09-17T22:26:56.445Z,1.50
2022-09-17T22:29:30.266Z,1.30
2022-09-17T22:31:58.697Z,1.27
2022-09-17T22:34:27.129Z,1.30
2022-09-17T22:36:55.546Z,1.20
2022-09-17T22:39:24.036Z,1.73
2022-09-17T22:41:52.522Z,1.23
2022-09-17T22:44:21.335Z,1.20
2022-09-17T22:46:52.748Z,1.87
2022-09-17T22:49:21.298Z,1.83
2022-09-17T22:51:49.923Z,2.67
2022-09-17T22:54:19.375Z,3.23
2022-09-17T22:56:49.006Z,1.30
2022-09-17T22:59:18.123Z,1.20
2022-09-17T23:01:46.953Z,2.00
2022-09-17T23:04:16.860Z,1.47
2022-09-17T23:06:45.298Z,1.97
2022-09-17T23:09:14.083Z,1.40
2022-09-17T23:11:42.802Z,2.07
2022-09-17T23:14:12.666Z,0.90
2022-09-17T23:16:42.453Z,1.23
2022-09-17T23:19:11.440Z,1.43
2022-09-17T23:21:41.582Z,2.30
2022-09-17T23:24:11.513Z,2.57
2022-09-17T23:26:39.918Z,1.07
2022-09-17T23:29:08.471Z,1.87
2022-09-17T23:31:36.927Z,3.13
2022-09-17T23:34:06.201Z,2.23
2022-09-17T23:36:36.269Z,1.40
2022-09-17T23:39:07.522Z,1.53
2022-09-17T23:41:37.936Z,1.47
2022-09-17T23:44:12.162Z,1.07
2022-09-17T23:46:43.444Z,1.10
2022-09-17T23:49:13.395Z,1.20
2022-09-17T23:51:42.127Z,2.10
2022-09-17T23:54:11.903Z,1.17
2022-09-17T23:56:40.569Z,4.07
2022-09-17T23:59:10.062Z,2.10
